sensor_id;sensor_type;location;lat;lon;timestamp;pressure;altitude;pressure_sealevel;temperature;humidity
6829;BME280;17930;48.592;8.868;2023-01-27T00:00:16;96949.91;;;-1.52;100.00
6829;BME280;17930;48.592;8.868;2023-01-27T00:02:44;96947.34;;;-1.52;100.00
6829;BME280;17930;48.592;8.868;2023-01-27T00:05:12;96948.03;;;-1.24;100.00
6829;BME280;17930;48.592;8.868;2023-01-27T00:07:40;96952.50;;;-1.39;100.00
6829;BME280;17930;48.592;8.868;2023-01-27T00:10:12;96951.53;;;-1.38;100.00
6829;BME280;17930;48.592;8.868;2023-01-27T00:12:40;96948.97;;;-1.38;100.00
6829;BME280;17930;48.592;8.868;2023-01-27T00:15:28;96945.63;;;-1.32;100.00
6829;BME280;17930;48.592;8.868;2023-01-27T00:17:55;96956.66;;;-1.25;100.00
6829;BME280;17930;48.592;8.868;2023-01-27T00:20:22;96947.34;;;-1.46;100.00
6829;BME280;17930;48.592;8.868;2023-01-27T00:23:03;96948.31;;;-1.53;100.00
6829;BME280;17930;48.592;8.868;2023-01-27T00:25:47;96945.19;;;-1.55;100.00
6829;BME280;17930;48.592;8.868;2023-01-27T00:28:15;96940.06;;;-1.49;100.00
6829;BME280;17930;48.592;8.868;2023-01-27T00:30:49;96941.06;;;-1.43;100.00
6829;BME280;17930;48.592;8.868;2023-01-27T00:33:16;96942.88;;;-1.31;100.00
6829;BME280;17930;48.592;8.868;2023-01-27T00:35:58;96949.13;;;-1.46;100.00
6829;BME280;17930;48.592;8.868;2023-01-27T00:38:26;96942.81;;;-1.50;100.00
6829;BME280;17930;48.592;8.868;2023-01-27T00:40:53;96938.53;;;-1.37;100.00
6829;BME280;17930;48.592;8.868;2023-01-27T00:43:37;96939.13;;;-1.41;100.00
6829;BME280;17930;48.592;8.868;2023-01-27T00:46:05;96942.63;;;-1.55;100.00
6829;BME280;17930;48.592;8.868;2023-01-27T00:48:32;96941.25;;;-1.45;100.00
6829;BME280;17930;48.592;8.868;2023-01-27T00:50:59;96942.81;;;-1.50;100.00
6829;BME280;17930;48.592;8.868;2023-01-27T00:53:26;96944.25;;;-1.41;100.00
6829;BME280;17930;48.592;8.868;2023-01-27T00:55:53;96939.25;;;-1.55;100.00
6829;BME280;17930;48.592;8.868;2023-01-27T00:58:20;96942.03;;;-1.44;100.00
6829;BME280;17930;48.592;8.868;2023-01-27T01:00:47;96942.03;;;-1.51;100.00
6829;BME280;17930;48.592;8.868;2023-01-27T01:03:15;96946.19;;;-1.43;100.00
6829;BME280;17930;48.592;8.868;2023-01-27T01:05:42;96945.56;;;-1.58;100.00
6829;BME280;17930;48.592;8.868;2023-01-27T01:08:08;96951.84;;;-1.54;100.00
6829;BME280;17930;48.592;8.868;2023-01-27T01:10:36;96942.00;;;-1.57;100.00
6829;BME280;17930;48.592;8.868;2023-01-27T01:13:03;96947.53;;;-1.53;100.00
6829;BME280;17930;48.592;8.868;2023-01-27T01:15:34;96954.44;;;-1.48;100.00
6829;BME280;17930;48.592;8.868;2023-01-27T01:18:00;96951.47;;;-1.51;100.00
6829;BME280;17930;48.592;8.868;2023-01-27T01:20:29;96953.81;;;-1.56;100.00
6829;BME280;17930;48.592;8.868;2023-01-27T01:22:55;96951.03;;;-1.67;100.00
6829;BME280;17930;48.592;8.868;2023-01-27T01:25:23;96952.22;;;-1.63;100.00
6829;BME280;17930;48.592;8.868;2023-01-27T01:27:50;96957.94;;;-1.55;100.00
6829;BME280;17930;48.592;8.868;2023-01-27T01:30:16;96946.72;;;-1.54;100.00
6829;BME280;17930;48.592;8.868;2023-01-27T01:32:43;96949.88;;;-1.58;100.00
6829;BME280;17930;48.592;8.868;2023-01-27T01:35:10;96945.97;;;-1.48;100.00
6829;BME280;17930;48.592;8.868;2023-01-27T01:37:38;96950.28;;;-1.49;100.00
6829;BME280;17930;48.592;8.868;2023-01-27T01:40:06;96944.78;;;-1.46;100.00
6829;BME280;17930;48.592;8.868;2023-01-27T01:42:51;96944.97;;;-1.47;100.00
6829;BME280;17930;48.592;8.868;2023-01-27T01:45:43;96951.06;;;-1.54;100.00
6829;BME280;17930;48.592;8.868;2023-01-27T01:48:13;96945.56;;;-1.58;100.00
6829;BME280;17930;48.592;8.868;2023-01-27T01:50:44;96951.09;;;-1.48;100.00
6829;BME280;17930;48.592;8.868;2023-01-27T01:53:15;96947.34;;;-1.46;100.00
6829;BME280;17930;48.592;8.868;2023-01-27T01:55:42;96941.63;;;-1.54;100.00
6829;BME280;17930;48.592;8.868;2023-01-27T01:58:10;96937.66;;;-1.63;100.00
6829;BME280;17930;48.592;8.868;2023-01-27T02:00:38;96943.19;;;-1.59;100.00
6829;BME280;17930;48.592;8.868;2023-01-27T02:03:05;96936.50;;;-1.60;100.00
6829;BME280;17930;48.592;8.868;2023-01-27T02:05:34;96932.75;;;-1.71;100.00
6829;BME280;17930;48.592;8.868;2023-01-27T02:08:04;96931.41;;;-1.54;100.00
6829;BME280;17930;48.592;8.868;2023-01-27T02:10:34;96937.50;;;-1.55;100.00
6829;BME280;17930;48.592;8.868;2023-01-27T02:13:01;96926.84;;;-1.65;100.00
6829;BME280;17930;48.592;8.868;2023-01-27T02:15:28;96926.66;;;-1.57;100.00
6829;BME280;17930;48.592;8.868;2023-01-27T02:17:54;96924.50;;;-1.60;100.00
6829;BME280;17930;48.592;8.868;2023-01-27T02:20:27;96928.63;;;-1.59;100.00
6829;BME280;17930;48.592;8.868;2023-01-27T02:23:04;96927.88;;;-1.53;100.00
6829;BME280;17930;48.592;8.868;2023-01-27T02:25:42;96920.03;;;-1.45;100.00
6829;BME280;17930;48.592;8.868;2023-01-27T02:28:10;96925.69;;;-1.62;100.00
6829;BME280;17930;48.592;8.868;2023-01-27T02:30:37;96918.97;;;-1.70;100.00
6829;BME280;17930;48.592;8.868;2023-01-27T02:33:08;96921.94;;;-1.66;100.00
6829;BME280;17930;48.592;8.868;2023-01-27T02:35:37;96928.25;;;-1.56;100.00
6829;BME280;17930;48.592;8.868;2023-01-27T02:38:08;96916.06;;;-1.54;100.00
6829;BME280;17930;48.592;8.868;2023-01-27T02:40:39;96915.88;;;-1.46;100.00
6829;BME280;17930;48.592;8.868;2023-01-27T02:43:06;96924.72;;;-1.55;100.00
6829;BME280;17930;48.592;8.868;2023-01-27T02:45:33;96926.66;;;-1.57;100.00
6829;BME280;17930;48.592;8.868;2023-01-27T02:47:59;96921.56;;;-1.57;100.00
6829;BME280;17930;48.592;8.868;2023-01-27T02:50:26;96911.34;;;-1.57;100.00
6829;BME280;17930;48.592;8.868;2023-01-27T02:52:53;96917.44;;;-1.52;100.00
6829;BME280;17930;48.592;8.868;2023-01-27T02:55:19;96920.44;;;-1.48;100.00
6829;BME280;17930;48.592;8.868;2023-01-27T02:57:47;96920.19;;;-1.53;100.00
6829;BME280;17930;48.592;8.868;2023-01-27T03:00:14;96919.63;;;-1.49;100.00
6829;BME280;17930;48.592;8.868;2023-01-27T03:02:41;96919.19;;;-1.58;100.00
6829;BME280;17930;48.592;8.868;2023-01-27T03:05:08;96910.59;;;-1.51;100.00
6829;BME280;17930;48.592;8.868;2023-01-27T03:07:34;96914.72;;;-1.37;100.00
6829;BME280;17930;48.592;8.868;2023-01-27T03:10:01;96912.16;;;-1.44;100.00
6829;BME280;17930;48.592;8.868;2023-01-27T03:12:28;96918.09;;;-1.30;100.00
6829;BME280;17930;48.592;8.868;2023-01-27T03:14:56;96908.88;;;-1.18;100.00
6829;BME280;17930;48.592;8.868;2023-01-27T03:17:41;96920.88;;;-1.12;100.00
6829;BME280;17930;48.592;8.868;2023-01-27T03:20:25;96917.28;;;-1.37;100.00
6829;BME280;17930;48.592;8.868;2023-01-27T03:22:51;96919.06;;;-1.38;100.00
6829;BME280;17930;48.592;8.868;2023-01-27T03:25:18;96912.56;;;-1.27;100.00
6829;BME280;17930;48.592;8.868;2023-01-27T03:27:45;96914.16;;;-1.33;100.00
6829;BME280;17930;48.592;8.868;2023-01-27T03:30:13;96916.53;;;-1.31;100.00
6829;BME280;17930;48.592;8.868;2023-01-27T03:32:40;96912.56;;;-1.40;100.00
6829;BME280;17930;48.592;8.868;2023-01-27T03:35:11;96919.66;;;-1.42;100.00
6829;BME280;17930;48.592;8.868;2023-01-27T03:37:40;96910.19;;;-1.48;100.00
6829;BME280;17930;48.592;8.868;2023-01-27T03:40:25;96910.59;;;-1.51;100.00
6829;BME280;17930;48.592;8.868;2023-01-27T03:43:10;96921.16;;;-1.60;100.00
6829;BME280;17930;48.592;8.868;2023-01-27T03:45:56;96920.63;;;-1.50;100.00
6829;BME280;17930;48.592;8.868;2023-01-27T03:48:43;96922.59;;;-1.45;100.00
6829;BME280;17930;48.592;8.868;2023-01-27T03:51:09;96914.69;;;-1.50;100.00
6829;BME280;17930;48.592;8.868;2023-01-27T03:53:36;96909.03;;;-1.39;100.00
6829;BME280;17930;48.592;8.868;2023-01-27T03:56:03;96905.50;;;-1.38;100.00
6829;BME280;17930;48.592;8.868;2023-01-27T03:58:32;96915.50;;;-1.50;100.00
6829;BME280;17930;48.592;8.868;2023-01-27T04:01:03;96909.97;;;-1.53;100.00
6829;BME280;17930;48.592;8.868;2023-01-27T04:03:34;96916.09;;;-1.48;100.00
6829;BME280;17930;48.592;8.868;2023-01-27T04:06:19;96931.47;;;-1.28;100.00
6829;BME280;17930;48.592;8.868;2023-01-27T04:09:05;96928.69;;;-1.33;100.00
6829;BME280;17930;48.592;8.868;2023-01-27T04:11:32;96923.59;;;-1.20;100.00
6829;BME280;17930;48.592;8.868;2023-01-27T04:14:16;96924.63;;;-1.08;100.00
6829;BME280;17930;48.592;8.868;2023-01-27T04:16:45;96919.28;;;-1.13;100.00
6829;BME280;17930;48.592;8.868;2023-01-27T04:19:12;96931.66;;;-1.23;100.00
6829;BME280;17930;48.592;8.868;2023-01-27T04:21:39;96933.09;;;-1.14;100.00
6829;BME280;17930;48.592;8.868;2023-01-27T04:24:06;96926.97;;;-1.20;100.00
6829;BME280;17930;48.592;8.868;2023-01-27T04:26:42;96930.31;;;-1.19;100.00
6829;BME280;17930;48.592;8.868;2023-01-27T04:29:11;96926.59;;;-1.17;100.00
6829;BME280;17930;48.592;8.868;2023-01-27T04:31:38;96935.41;;;-1.32;100.00
6829;BME280;17930;48.592;8.868;2023-01-27T04:34:06;96926.34;;;-1.35;100.00
6829;BME280;17930;48.592;8.868;2023-01-27T04:36:33;96931.44;;;-1.35;100.00
6829;BME280;17930;48.592;8.868;2023-01-27T04:39:00;96941.09;;;-1.30;100.00
6829;BME280;17930;48.592;8.868;2023-01-27T04:41:27;96936.22;;;-1.25;100.00
6829;BME280;17930;48.592;8.868;2023-01-27T04:43:53;96945.06;;;-1.21;100.00
6829;BME280;17930;48.592;8.868;2023-01-27T04:46:20;96933.03;;;-1.27;100.00
6829;BME280;17930;48.592;8.868;2023-01-27T04:48:47;96944.03;;;-1.33;100.00
6829;BME280;17930;48.592;8.868;2023-01-27T04:51:15;96944.44;;;-1.36;100.00
6829;BME280;17930;48.592;8.868;2023-01-27T04:53:41;96940.91;;;-1.35;100.00
6829;BME280;17930;48.592;8.868;2023-01-27T04:56:23;96939.13;;;-1.35;100.00
6829;BME280;17930;48.592;8.868;2023-01-27T04:58:50;96947.22;;;-1.31;100.00
6829;BME280;17930;48.592;8.868;2023-01-27T05:01:17;96940.91;;;-1.29;100.00
6829;BME280;17930;48.592;8.868;2023-01-27T05:03:43;96938.16;;;-1.34;100.00
6829;BME280;17930;48.592;8.868;2023-01-27T05:06:11;96942.66;;;-1.42;100.00
6829;BME280;17930;48.592;8.868;2023-01-27T05:08:39;96933.41;;;-1.43;100.00
6829;BME280;17930;48.592;8.868;2023-01-27T05:11:06;96935.38;;;-1.39;100.00
6829;BME280;17930;48.592;8.868;2023-01-27T05:13:32;96931.03;;;-1.45;100.00
6829;BME280;17930;48.592;8.868;2023-01-27T05:16:07;96947.16;;;-1.44;100.00
6829;BME280;17930;48.592;8.868;2023-01-27T05:18:34;96934.22;;;-1.36;100.00
6829;BME280;17930;48.592;8.868;2023-01-27T05:21:02;96939.72;;;-1.39;100.00
6829;BME280;17930;48.592;8.868;2023-01-27T05:23:29;96934.63;;;-1.33;100.00
6829;BME280;17930;48.592;8.868;2023-01-27T05:26:08;96940.13;;;-1.29;100.00
6829;BME280;17930;48.592;8.868;2023-01-27T05:28:42;96927.91;;;-1.27;100.00
6829;BME280;17930;48.592;8.868;2023-01-27T05:31:11;96930.28;;;-1.32;100.00
6829;BME280;17930;48.592;8.868;2023-01-27T05:33:39;96945.22;;;-1.42;100.00
6829;BME280;17930;48.592;8.868;2023-01-27T05:36:08;96964.88;;;-1.36;100.00
6829;BME280;17930;48.592;8.868;2023-01-27T05:38:36;96945.59;;;-1.45;100.00
6829;BME280;17930;48.592;8.868;2023-01-27T05:41:06;96951.47;;;-1.51;100.00
6829;BME280;17930;48.592;8.868;2023-01-27T05:43:34;96947.31;;;-1.65;100.00
6829;BME280;17930;48.592;8.868;2023-01-27T05:46:03;96958.16;;;-1.50;100.00
6829;BME280;17930;48.592;8.868;2023-01-27T05:48:33;96952.66;;;-1.47;100.00
6829;BME280;17930;48.592;8.868;2023-01-27T05:51:00;96950.28;;;-1.49;100.00
6829;BME280;17930;48.592;8.868;2023-01-27T05:53:26;96957.75;;;-1.47;100.00
6829;BME280;17930;48.592;8.868;2023-01-27T05:55:53;96962.53;;;-1.38;100.00
6829;BME280;17930;48.592;8.868;2023-01-27T05:58:22;96969.97;;;-1.49;100.00
6829;BME280;17930;48.592;8.868;2023-01-27T06:00:49;96970.38;;;-1.39;100.00
6829;BME280;17930;48.592;8.868;2023-01-27T06:03:16;96973.56;;;-1.31;100.00
6829;BME280;17930;48.592;8.868;2023-01-27T06:05:50;96989.69;;;-1.30;100.00
6829;BME280;17930;48.592;8.868;2023-01-27T06:08:17;96983.38;;;-1.41;100.00
6829;BME280;17930;48.592;8.868;2023-01-27T06:10:44;96980.38;;;-1.44;100.00
6829;BME280;17930;48.592;8.868;2023-01-27T06:13:11;96985.91;;;-1.41;100.00
6829;BME280;17930;48.592;8.868;2023-01-27T06:15:41;96992.41;;;-1.45;100.00
6829;BME280;17930;48.592;8.868;2023-01-27T06:18:08;96982.50;;;-1.54;100.00
6829;BME280;17930;48.592;8.868;2023-01-27T06:20:35;96976.66;;;-1.42;100.00
6829;BME280;17930;48.592;8.868;2023-01-27T06:23:02;96977.28;;;-1.40;100.00
6829;BME280;17930;48.592;8.868;2023-01-27T06:25:28;96977.47;;;-1.41;100.00
6829;BME280;17930;48.592;8.868;2023-01-27T06:30:55;96975.47;;;-1.52;100.00
6829;BME280;17930;48.592;8.868;2023-01-27T06:33:22;96978.97;;;-1.59;100.00
6829;BME280;17930;48.592;8.868;2023-01-27T06:35:59;96978.16;;;-1.66;100.00
6829;BME280;17930;48.592;8.868;2023-01-27T06:38:27;96984.91;;;-1.46;100.00
6829;BME280;17930;48.592;8.868;2023-01-27T06:40:56;96995.34;;;-1.48;100.00
6829;BME280;17930;48.592;8.868;2023-01-27T06:43:23;96984.53;;;-1.43;100.00
6829;BME280;17930;48.592;8.868;2023-01-27T06:45:50;96996.09;;;-1.47;100.00
6829;BME280;17930;48.592;8.868;2023-01-27T06:48:19;96993.97;;;-1.37;100.00
6829;BME280;17930;48.592;8.868;2023-01-27T06:50:46;96997.13;;;-1.48;100.00
6829;BME280;17930;48.592;8.868;2023-01-27T06:53:13;96994.75;;;-1.43;100.00
6829;BME280;17930;48.592;8.868;2023-01-27T06:55:40;96999.09;;;-1.37;100.00
6829;BME280;17930;48.592;8.868;2023-01-27T06:58:08;97001.47;;;-1.42;100.00
6829;BME280;17930;48.592;8.868;2023-01-27T07:00:38;97001.47;;;-1.42;100.00
6829;BME280;17930;48.592;8.868;2023-01-27T07:03:10;97000.28;;;-1.33;100.00
6829;BME280;17930;48.592;8.868;2023-01-27T07:05:39;97004.84;;;-1.29;100.00
6829;BME280;17930;48.592;8.868;2023-01-27T07:08:06;97010.91;;;-1.36;100.00
6829;BME280;17930;48.592;8.868;2023-01-27T07:10:33;97017.59;;;-1.35;100.00
6829;BME280;17930;48.592;8.868;2023-01-27T07:13:04;97018.22;;;-1.27;100.00
6829;BME280;17930;48.592;8.868;2023-01-27T07:15:31;97022.97;;;-1.17;100.00
6829;BME280;17930;48.592;8.868;2023-01-27T07:17:58;97025.56;;;-1.11;100.00
6829;BME280;17930;48.592;8.868;2023-01-27T07:20:27;97035.97;;;-1.12;100.00
6829;BME280;17930;48.592;8.868;2023-01-27T07:22:57;97029.84;;;-1.24;100.00
6829;BME280;17930;48.592;8.868;2023-01-27T07:25:24;97036.09;;;-1.40;100.00
6829;BME280;17930;48.592;8.868;2023-01-27T07:27:52;97041.97;;;-1.39;100.00
6829;BME280;17930;48.592;8.868;2023-01-27T07:30:19;97048.53;;;-1.24;100.00
6829;BME280;17930;48.592;8.868;2023-01-27T07:32:45;97042.06;;;-1.13;100.00
6829;BME280;17930;48.592;8.868;2023-01-27T07:35:16;97048.22;;;-1.02;100.00
6829;BME280;17930;48.592;8.868;2023-01-27T07:37:43;97057.84;;;-1.03;100.00
6829;BME280;17930;48.592;8.868;2023-01-27T07:40:12;97064.88;;;-1.18;100.00
6829;BME280;17930;48.592;8.868;2023-01-27T07:42:39;97050.31;;;-1.24;100.00
6829;BME280;17930;48.592;8.868;2023-01-27T07:45:07;97049.53;;;-1.18;100.00
6829;BME280;17930;48.592;8.868;2023-01-27T07:47:34;97055.50;;;-0.99;100.00
6829;BME280;17930;48.592;8.868;2023-01-27T07:50:01;97060.59;;;-1.05;100.00
6829;BME280;17930;48.592;8.868;2023-01-27T07:52:27;97062.38;;;-1.05;100.00
6829;BME280;17930;48.592;8.868;2023-01-27T07:54:54;97059.81;;;-1.05;100.00
6829;BME280;17930;48.592;8.868;2023-01-27T07:57:22;97070.03;;;-1.05;100.00
6829;BME280;17930;48.592;8.868;2023-01-27T07:59:51;97058.78;;;-1.17;100.00
6829;BME280;17930;48.592;8.868;2023-01-27T08:02:20;97056.16;;;-1.30;100.00
6829;BME280;17930;48.592;8.868;2023-01-27T08:04:47;97062.91;;;-1.16;100.00
6829;BME280;17930;48.592;8.868;2023-01-27T08:07:14;97059.41;;;-1.09;100.00
6829;BME280;17930;48.592;8.868;2023-01-27T08:09:41;97069.28;;;-1.00;100.00
6829;BME280;17930;48.592;8.868;2023-01-27T08:12:08;97038.97;;;-1.02;100.00
6829;BME280;17930;48.592;8.868;2023-01-27T08:14:36;97067.31;;;-0.98;100.00
6829;BME280;17930;48.592;8.868;2023-01-27T08:17:02;97068.50;;;-1.00;100.00
6829;BME280;17930;48.592;8.868;2023-01-27T08:19:29;97066.88;;;-1.07;100.00
6829;BME280;17930;48.592;8.868;2023-01-27T08:21:56;97075.56;;;-1.08;100.00
6829;BME280;17930;48.592;8.868;2023-01-27T08:24:22;97076.75;;;-1.04;100.00
6829;BME280;17930;48.592;8.868;2023-01-27T08:26:49;97078.53;;;-0.99;100.00
6829;BME280;17930;48.592;8.868;2023-01-27T08:29:16;97076.78;;;-0.92;100.00
6829;BME280;17930;48.592;8.868;2023-01-27T08:32:10;97081.69;;;-0.97;100.00
6829;BME280;17930;48.592;8.868;2023-01-27T08:34:38;97073.56;;;-1.13;100.00
6829;BME280;17930;48.592;8.868;2023-01-27T08:37:05;97082.28;;;-0.95;100.00
6829;BME280;17930;48.592;8.868;2023-01-27T08:39:32;97079.75;;;-0.95;100.00
6829;BME280;17930;48.592;8.868;2023-01-27T08:41:59;97090.81;;;-0.75;100.00
6829;BME280;17930;48.592;8.868;2023-01-27T08:44:26;97085.81;;;-0.96;100.00
6829;BME280;17930;48.592;8.868;2023-01-27T08:46:53;97088.19;;;-0.88;100.00
6829;BME280;17930;48.592;8.868;2023-01-27T08:49:21;97092.97;;;-0.85;100.00
6829;BME280;17930;48.592;8.868;2023-01-27T08:51:48;97097.66;;;-0.95;100.00
6829;BME280;17930;48.592;8.868;2023-01-27T08:54:15;97094.09;;;-1.00;100.00
6829;BME280;17930;48.592;8.868;2023-01-27T08:56:42;97108.25;;;-0.98;100.00
6829;BME280;17930;48.592;8.868;2023-01-27T08:59:08;97106.91;;;-0.81;100.00
6829;BME280;17930;48.592;8.868;2023-01-27T09:01:41;97095.69;;;-0.93;100.00
6829;BME280;17930;48.592;8.868;2023-01-27T09:04:07;97108.31;;;-0.85;100.00
6829;BME280;17930;48.592;8.868;2023-01-27T09:06:35;97102.59;;;-0.80;100.00
6829;BME280;17930;48.592;8.868;2023-01-27T09:09:02;97097.69;;;-0.82;100.00
6829;BME280;17930;48.592;8.868;2023-01-27T09:11:36;97092.75;;;-0.83;100.00
6829;BME280;17930;48.592;8.868;2023-01-27T09:14:03;97098.06;;;-0.85;100.00
6829;BME280;17930;48.592;8.868;2023-01-27T09:16:30;97103.97;;;-0.78;100.00
6829;BME280;17930;48.592;8.868;2023-01-27T09:18:57;97099.25;;;-0.81;100.00
6829;BME280;17930;48.592;8.868;2023-01-27T09:21:24;97103.63;;;-0.68;100.00
6829;BME280;17930;48.592;8.868;2023-01-27T09:23:52;97095.94;;;-0.75;100.00
6829;BME280;17930;48.592;8.868;2023-01-27T09:26:19;97093.78;;;-0.71;100.00
6829;BME280;17930;48.592;8.868;2023-01-27T09:28:46;97090.19;;;-0.77;100.00
6829;BME280;17930;48.592;8.868;2023-01-27T09:31:13;97093.41;;;-0.62;100.00
6829;BME280;17930;48.592;8.868;2023-01-27T09:33:39;97087.88;;;-0.72;100.00
6829;BME280;17930;48.592;8.868;2023-01-27T09:36:10;97091.44;;;-0.60;100.00
6829;BME280;17930;48.592;8.868;2023-01-27T09:38:44;97089.84;;;-0.61;100.00
6829;BME280;17930;48.592;8.868;2023-01-27T09:41:27;97092.44;;;-0.54;100.00
6829;BME280;17930;48.592;8.868;2023-01-27T09:44:14;97096.56;;;-0.53;100.00
6829;BME280;17930;48.592;8.868;2023-01-27T09:46:56;97099.88;;;-0.66;100.00
6829;BME280;17930;48.592;8.868;2023-01-27T09:49:38;97098.34;;;-0.41;100.00
6829;BME280;17930;48.592;8.868;2023-01-27T09:52:22;97096.16;;;-0.57;100.00
6829;BME280;17930;48.592;8.868;2023-01-27T09:55:03;97109.16;;;-0.65;100.00
6829;BME280;17930;48.592;8.868;2023-01-27T09:57:41;97097.31;;;-0.59;100.00
6829;BME280;17930;48.592;8.868;2023-01-27T10:00:20;97096.38;;;-0.52;100.00
6829;BME280;17930;48.592;8.868;2023-01-27T10:03:07;97091.81;;;-0.63;100.00
6829;BME280;17930;48.592;8.868;2023-01-27T10:05:56;97096.97;;;-0.56;100.00
6829;BME280;17930;48.592;8.868;2023-01-27T10:08:51;97113.50;;;-0.59;100.00
6829;BME280;17930;48.592;8.868;2023-01-27T10:11:26;97111.09;;;-0.67;100.00
6829;BME280;17930;48.592;8.868;2023-01-27T10:14:05;97114.25;;;-0.71;100.00
6829;BME280;17930;48.592;8.868;2023-01-27T10:16:54;97107.97;;;-0.69;100.00
6829;BME280;17930;48.592;8.868;2023-01-27T10:19:36;97108.56;;;-0.54;100.00
6829;BME280;17930;48.592;8.868;2023-01-27T10:22:14;97115.47;;;-0.48;100.00
6829;BME280;17930;48.592;8.868;2023-01-27T10:24:50;97124.13;;;-0.62;100.00
6829;BME280;17930;48.592;8.868;2023-01-27T10:27:22;97124.13;;;-0.62;100.00
6829;BME280;17930;48.592;8.868;2023-01-27T10:29:57;97125.13;;;-0.56;100.00
6829;BME280;17930;48.592;8.868;2023-01-27T10:32:37;97129.25;;;-0.55;100.00
6829;BME280;17930;48.592;8.868;2023-01-27T10:35:14;97125.31;;;-0.52;100.00
6829;BME280;17930;48.592;8.868;2023-01-27T10:37:53;97120.22;;;-0.45;100.00
6829;BME280;17930;48.592;8.868;2023-01-27T10:40:32;97122.16;;;-0.60;100.00
6829;BME280;17930;48.592;8.868;2023-01-27T10:43:05;97119.44;;;-0.52;100.00
6829;BME280;17930;48.592;8.868;2023-01-27T10:45:41;97117.81;;;-0.59;100.00
6829;BME280;17930;48.592;8.868;2023-01-27T10:48:27;97116.25;;;-0.60;100.00
6829;BME280;17930;48.592;8.868;2023-01-27T10:50:59;97118.03;;;-0.48;100.00
6829;BME280;17930;48.592;8.868;2023-01-27T10:53:33;97112.75;;;-0.27;100.00
6829;BME280;17930;48.592;8.868;2023-01-27T10:56:05;97105.44;;;-0.43;100.00
6829;BME280;17930;48.592;8.868;2023-01-27T10:58:47;97110.00;;;-0.19;100.00
6829;BME280;17930;48.592;8.868;2023-01-27T11:01:24;97113.56;;;-0.07;100.00
6829;BME280;17930;48.592;8.868;2023-01-27T11:03:57;97114.75;;;-0.16;100.00
6829;BME280;17930;48.592;8.868;2023-01-27T11:06:29;97110.41;;;-0.22;100.00
6829;BME280;17930;48.592;8.868;2023-01-27T11:09:06;97109.63;;;-0.29;100.00
6829;BME280;17930;48.592;8.868;2023-01-27T11:11:34;97106.06;;;-0.22;100.00
6829;BME280;17930;48.592;8.868;2023-01-27T11:14:16;97110.00;;;-0.19;100.00
6829;BME280;17930;48.592;8.868;2023-01-27T11:16:48;97113.97;;;-0.10;100.00
6829;BME280;17930;48.592;8.868;2023-01-27T11:19:32;97118.91;;;-0.02;100.00
6829;BME280;17930;48.592;8.868;2023-01-27T11:22:02;97113.38;;;-0.12;100.00
6829;BME280;17930;48.592;8.868;2023-01-27T11:25:05;97109.63;;;-0.03;100.00
6829;BME280;17930;48.592;8.868;2023-01-27T11:27:59;97106.44;;;0.46;100.00
6829;BME280;17930;48.592;8.868;2023-01-27T11:30:34;97101.47;;;0.57;100.00
6829;BME280;17930;48.592;8.868;2023-01-27T11:33:10;97100.31;;;0.47;100.00
6829;BME280;17930;48.592;8.868;2023-01-27T11:35:42;97108.41;;;0.18;100.00
6829;BME280;17930;48.592;8.868;2023-01-27T11:38:21;97105.47;;;-0.04;100.00
6829;BME280;17930;48.592;8.868;2023-01-27T11:40:52;97097.00;;;-0.11;100.00
6829;BME280;17930;48.592;8.868;2023-01-27T11:43:23;97093.88;;;0.06;100.00
6829;BME280;17930;48.592;8.868;2023-01-27T11:45:57;97096.22;;;0.01;100.00
6829;BME280;17930;48.592;8.868;2023-01-27T11:48:33;97096.03;;;0.02;100.00
6829;BME280;17930;48.592;8.868;2023-01-27T11:51:02;97100.97;;;-0.02;100.00
6829;BME280;17930;48.592;8.868;2023-01-27T11:53:30;97092.66;;;-0.04;100.00
6829;BME280;17930;48.592;8.868;2023-01-27T11:56:07;97097.38;;;-0.02;100.00
6829;BME280;17930;48.592;8.868;2023-01-27T11:58:40;97094.22;;;-0.10;100.00
6829;BME280;17930;48.592;8.868;2023-01-27T12:01:13;97080.47;;;-0.02;100.00
6829;BME280;17930;48.592;8.868;2023-01-27T12:03:48;97079.47;;;-0.14;100.00
6829;BME280;17930;48.592;8.868;2023-01-27T12:06:22;97084.22;;;0.01;100.00
6829;BME280;17930;48.592;8.868;2023-01-27T12:08:50;97078.28;;;0.01;100.00
6829;BME280;17930;48.592;8.868;2023-01-27T12:11:21;97068.63;;;-0.03;100.00
6829;BME280;17930;48.592;8.868;2023-01-27T12:13:50;97074.53;;;0.03;100.00
6829;BME280;17930;48.592;8.868;2023-01-27T12:16:18;97071.78;;;-0.08;100.00
6829;BME280;17930;48.592;8.868;2023-01-27T12:18:52;97070.97;;;-0.02;100.00
6829;BME280;17930;48.592;8.868;2023-01-27T12:21:20;97067.44;;;-0.07;100.00
6829;BME280;17930;48.592;8.868;2023-01-27T12:23:59;97066.63;;;-0.02;100.00
6829;BME280;17930;48.592;8.868;2023-01-27T12:26:30;97074.31;;;-0.02;100.00
6829;BME280;17930;48.592;8.868;2023-01-27T12:29:04;97063.09;;;0.12;100.00
6829;BME280;17930;48.592;8.868;2023-01-27T12:31:43;97065.06;;;0.23;100.00
6829;BME280;17930;48.592;8.868;2023-01-27T12:34:26;97060.53;;;0.19;100.00
6829;BME280;17930;48.592;8.868;2023-01-27T12:36:55;97068.38;;;0.37;100.00
6829;BME280;17930;48.592;8.868;2023-01-27T12:39:30;97067.41;;;0.18;100.00
6829;BME280;17930;48.592;8.868;2023-01-27T12:41:58;97059.16;;;0.16;100.00
6829;BME280;17930;48.592;8.868;2023-01-27T12:44:25;97054.22;;;-0.04;100.00
6829;BME280;17930;48.592;8.868;2023-01-27T12:46:57;97062.69;;;0.02;100.00
6829;BME280;17930;48.592;8.868;2023-01-27T12:49:31;97063.91;;;0.13;100.00
6829;BME280;17930;48.592;8.868;2023-01-27T12:52:00;97056.34;;;0.31;100.00
6829;BME280;17930;48.592;8.868;2023-01-27T12:54:29;97068.19;;;0.25;100.00
6829;BME280;17930;48.592;8.868;2023-01-27T12:57:01;97070.78;;;0.19;100.00
6829;BME280;17930;48.592;8.868;2023-01-27T12:59:28;97068.41;;;0.17;100.00
6829;BME280;17930;48.592;8.868;2023-01-27T13:02:00;97069.00;;;0.26;100.00
6829;BME280;17930;48.592;8.868;2023-01-27T13:04:29;97067.03;;;0.21;100.00
6829;BME280;17930;48.592;8.868;2023-01-27T13:07:04;97060.31;;;0.33;100.00
6829;BME280;17930;48.592;8.868;2023-01-27T13:09:34;97068.56;;;0.42;100.00
6829;BME280;17930;48.592;8.868;2023-01-27T13:12:11;97060.28;;;0.46;100.00
6829;BME280;17930;48.592;8.868;2023-01-27T13:14:41;97074.06;;;0.51;100.00
6829;BME280;17930;48.592;8.868;2023-01-27T13:17:27;97061.47;;;0.37;100.00
6829;BME280;17930;48.592;8.868;2023-01-27T13:19:58;97075.09;;;0.31;100.00
6829;BME280;17930;48.592;8.868;2023-01-27T13:22:26;97074.69;;;0.28;100.00
6829;BME280;17930;48.592;8.868;2023-01-27T13:24:58;97072.38;;;0.20;100.00